sensor_id;sensor_type;location;lat;lon;timestamp;P1;durP1;ratioP1;P2;durP2;ratioP2
2912;SDS011;1466;48.778;9.166;2023-08-20T00:01:52;21.93;;;13.20;;
2912;SDS011;1466;48.778;9.166;2023-08-20T00:04:22;18.03;;;12.20;;
2912;SDS011;1466;48.778;9.166;2023-08-20T00:06:50;21.77;;;13.50;;
2912;SDS011;1466;48.778;9.166;2023-08-20T00:09:16;30.70;;;14.40;;
2912;SDS011;1466;48.778;9.166;2023-08-20T00:11:42;25.97;;;13.47;;
2912;SDS011;1466;48.778;9.166;2023-08-20T00:14:07;21.03;;;12.40;;
2912;SDS011;1466;48.778;9.166;2023-08-20T00:16:33;20.80;;;13.03;;
2912;SDS011;1466;48.778;9.166;2023-08-20T00:18:59;21.73;;;12.67;;
2912;SDS011;1466;48.778;9.166;2023-08-20T00:21:25;21.50;;;13.07;;
2912;SDS011;1466;48.778;9.166;2023-08-20T00:23:53;22.77;;;12.60;;
2912;SDS011;1466;48.778;9.166;2023-08-20T00:26:19;24.07;;;13.60;;
2912;SDS011;1466;48.778;9.166;2023-08-20T00:28:44;22.50;;;13.97;;
2912;SDS011;1466;48.778;9.166;2023-08-20T00:31:10;17.43;;;12.27;;
2912;SDS011;1466;48.778;9.166;2023-08-20T00:33:35;27.70;;;14.17;;
2912;SDS011;1466;48.778;9.166;2023-08-20T00:36:01;26.20;;;14.20;;
2912;SDS011;1466;48.778;9.166;2023-08-20T00:38:27;19.33;;;12.80;;
2912;SDS011;1466;48.778;9.166;2023-08-20T00:40:53;32.80;;;15.27;;
2912;SDS011;1466;48.778;9.166;2023-08-20T00:43:18;26.23;;;13.23;;
2912;SDS011;1466;48.778;9.166;2023-08-20T00:45:44;21.40;;;13.00;;
2912;SDS011;1466;48.778;9.166;2023-08-20T00:48:10;15.30;;;11.83;;
2912;SDS011;1466;48.778;9.166;2023-08-20T00:50:36;27.50;;;14.27;;
2912;SDS011;1466;48.778;9.166;2023-08-20T00:53:02;21.03;;;12.70;;
2912;SDS011;1466;48.778;9.166;2023-08-20T00:55:28;23.60;;;13.37;;
2912;SDS011;1466;48.778;9.166;2023-08-20T00:57:54;17.83;;;12.03;;
2912;SDS011;1466;48.778;9.166;2023-08-20T01:00:19;29.20;;;14.90;;
2912;SDS011;1466;48.778;9.166;2023-08-20T01:02:47;24.50;;;13.77;;
2912;SDS011;1466;48.778;9.166;2023-08-20T01:05:12;24.63;;;13.83;;
2912;SDS011;1466;48.778;9.166;2023-08-20T01:07:43;28.00;;;14.63;;
2912;SDS011;1466;48.778;9.166;2023-08-20T01:13:19;26.40;;;14.07;;
2912;SDS011;1466;48.778;9.166;2023-08-20T01:15:45;21.13;;;13.30;;
2912;SDS011;1466;48.778;9.166;2023-08-20T01:18:11;20.63;;;12.10;;
2912;SDS011;1466;48.778;9.166;2023-08-20T01:20:39;18.87;;;12.80;;
2912;SDS011;1466;48.778;9.166;2023-08-20T01:23:31;28.90;;;14.60;;
2912;SDS011;1466;48.778;9.166;2023-08-20T01:26:23;23.50;;;12.83;;
2912;SDS011;1466;48.778;9.166;2023-08-20T01:29:00;27.23;;;14.13;;
2912;SDS011;1466;48.778;9.166;2023-08-20T01:31:27;22.60;;;13.00;;
2912;SDS011;1466;48.778;9.166;2023-08-20T01:33:53;20.63;;;13.60;;
2912;SDS011;1466;48.778;9.166;2023-08-20T01:36:19;17.60;;;13.57;;
2912;SDS011;1466;48.778;9.166;2023-08-20T01:38:44;20.53;;;13.30;;
2912;SDS011;1466;48.778;9.166;2023-08-20T01:41:10;29.07;;;13.90;;
2912;SDS011;1466;48.778;9.166;2023-08-20T01:43:36;19.63;;;12.87;;
2912;SDS011;1466;48.778;9.166;2023-08-20T01:46:01;26.57;;;14.13;;
2912;SDS011;1466;48.778;9.166;2023-08-20T01:48:27;20.53;;;13.80;;
2912;SDS011;1466;48.778;9.166;2023-08-20T01:50:52;23.37;;;14.00;;
2912;SDS011;1466;48.778;9.166;2023-08-20T01:53:18;22.30;;;12.73;;
2912;SDS011;1466;48.778;9.166;2023-08-20T01:55:44;24.63;;;13.60;;
2912;SDS011;1466;48.778;9.166;2023-08-20T01:58:09;22.40;;;13.77;;
2912;SDS011;1466;48.778;9.166;2023-08-20T02:00:35;27.43;;;15.00;;
2912;SDS011;1466;48.778;9.166;2023-08-20T02:03:00;23.27;;;13.23;;
2912;SDS011;1466;48.778;9.166;2023-08-20T02:05:26;32.73;;;14.63;;
2912;SDS011;1466;48.778;9.166;2023-08-20T02:07:51;22.53;;;13.87;;
2912;SDS011;1466;48.778;9.166;2023-08-20T02:10:18;24.67;;;14.83;;
2912;SDS011;1466;48.778;9.166;2023-08-20T02:12:44;19.37;;;12.97;;
2912;SDS011;1466;48.778;9.166;2023-08-20T02:15:09;20.13;;;14.10;;
2912;SDS011;1466;48.778;9.166;2023-08-20T02:17:36;33.53;;;17.43;;
2912;SDS011;1466;48.778;9.166;2023-08-20T02:20:02;56.30;;;19.67;;
2912;SDS011;1466;48.778;9.166;2023-08-20T02:22:31;40.00;;;17.13;;
2912;SDS011;1466;48.778;9.166;2023-08-20T02:24:59;37.73;;;17.30;;
2912;SDS011;1466;48.778;9.166;2023-08-20T02:27:24;23.27;;;15.27;;
2912;SDS011;1466;48.778;9.166;2023-08-20T02:29:50;37.27;;;17.67;;
2912;SDS011;1466;48.778;9.166;2023-08-20T02:32:16;33.77;;;17.40;;
2912;SDS011;1466;48.778;9.166;2023-08-20T02:34:42;41.03;;;17.27;;
2912;SDS011;1466;48.778;9.166;2023-08-20T02:37:08;36.37;;;17.13;;
2912;SDS011;1466;48.778;9.166;2023-08-20T02:39:34;34.70;;;16.03;;
2912;SDS011;1466;48.778;9.166;2023-08-20T02:41:59;31.67;;;16.23;;
2912;SDS011;1466;48.778;9.166;2023-08-20T02:44:25;39.20;;;17.33;;
2912;SDS011;1466;48.778;9.166;2023-08-20T02:46:50;50.63;;;19.13;;
2912;SDS011;1466;48.778;9.166;2023-08-20T02:49:16;33.27;;;16.27;;
2912;SDS011;1466;48.778;9.166;2023-08-20T02:51:42;40.27;;;17.53;;
2912;SDS011;1466;48.778;9.166;2023-08-20T02:54:08;20.50;;;15.23;;
2912;SDS011;1466;48.778;9.166;2023-08-20T02:56:34;21.10;;;14.90;;
2912;SDS011;1466;48.778;9.166;2023-08-20T02:58:59;27.07;;;15.43;;
2912;SDS011;1466;48.778;9.166;2023-08-20T03:01:25;21.70;;;15.33;;
2912;SDS011;1466;48.778;9.166;2023-08-20T03:03:51;28.07;;;15.53;;
2912;SDS011;1466;48.778;9.166;2023-08-20T03:06:17;24.20;;;14.30;;
2912;SDS011;1466;48.778;9.166;2023-08-20T03:08:43;24.00;;;14.67;;
2912;SDS011;1466;48.778;9.166;2023-08-20T03:11:09;42.23;;;18.03;;
2912;SDS011;1466;48.778;9.166;2023-08-20T03:13:34;27.33;;;14.97;;
2912;SDS011;1466;48.778;9.166;2023-08-20T03:16:00;30.00;;;17.10;;
2912;SDS011;1466;48.778;9.166;2023-08-20T03:18:26;28.53;;;14.73;;
2912;SDS011;1466;48.778;9.166;2023-08-20T03:20:53;29.50;;;15.93;;
2912;SDS011;1466;48.778;9.166;2023-08-20T03:23:20;20.20;;;14.20;;
2912;SDS011;1466;48.778;9.166;2023-08-20T03:25:46;27.83;;;15.33;;
2912;SDS011;1466;48.778;9.166;2023-08-20T03:28:11;29.60;;;16.00;;
2912;SDS011;1466;48.778;9.166;2023-08-20T03:30:37;22.23;;;14.53;;
2912;SDS011;1466;48.778;9.166;2023-08-20T03:33:03;27.00;;;16.30;;
2912;SDS011;1466;48.778;9.166;2023-08-20T03:35:29;25.60;;;15.40;;
2912;SDS011;1466;48.778;9.166;2023-08-20T03:37:54;22.43;;;14.33;;
2912;SDS011;1466;48.778;9.166;2023-08-20T03:40:20;30.03;;;15.77;;
2912;SDS011;1466;48.778;9.166;2023-08-20T03:42:45;27.80;;;15.23;;
2912;SDS011;1466;48.778;9.166;2023-08-20T03:45:11;22.00;;;15.10;;
2912;SDS011;1466;48.778;9.166;2023-08-20T03:47:36;26.63;;;16.40;;
2912;SDS011;1466;48.778;9.166;2023-08-20T03:50:02;28.37;;;14.63;;
2912;SDS011;1466;48.778;9.166;2023-08-20T03:52:28;35.13;;;17.07;;
2912;SDS011;1466;48.778;9.166;2023-08-20T03:54:54;22.90;;;15.30;;
2912;SDS011;1466;48.778;9.166;2023-08-20T03:57:20;24.47;;;14.73;;
2912;SDS011;1466;48.778;9.166;2023-08-20T03:59:46;33.87;;;16.90;;
2912;SDS011;1466;48.778;9.166;2023-08-20T04:02:12;29.37;;;15.57;;
2912;SDS011;1466;48.778;9.166;2023-08-20T04:04:38;28.43;;;17.20;;
2912;SDS011;1466;48.778;9.166;2023-08-20T04:07:04;27.43;;;16.37;;
2912;SDS011;1466;48.778;9.166;2023-08-20T04:09:29;26.40;;;14.80;;
2912;SDS011;1466;48.778;9.166;2023-08-20T04:11:55;30.27;;;15.90;;
2912;SDS011;1466;48.778;9.166;2023-08-20T04:14:20;27.90;;;14.57;;
2912;SDS011;1466;48.778;9.166;2023-08-20T04:17:02;37.03;;;17.20;;
2912;SDS011;1466;48.778;9.166;2023-08-20T04:19:27;26.47;;;15.63;;
2912;SDS011;1466;48.778;9.166;2023-08-20T04:21:59;22.23;;;14.50;;
2912;SDS011;1466;48.778;9.166;2023-08-20T04:24:26;21.87;;;15.37;;
2912;SDS011;1466;48.778;9.166;2023-08-20T04:26:52;25.27;;;16.10;;
2912;SDS011;1466;48.778;9.166;2023-08-20T04:29:18;27.70;;;14.83;;
2912;SDS011;1466;48.778;9.166;2023-08-20T04:31:44;23.37;;;13.70;;
2912;SDS011;1466;48.778;9.166;2023-08-20T04:34:10;22.50;;;15.30;;
2912;SDS011;1466;48.778;9.166;2023-08-20T04:36:35;25.23;;;16.50;;
2912;SDS011;1466;48.778;9.166;2023-08-20T04:39:01;27.40;;;16.57;;
2912;SDS011;1466;48.778;9.166;2023-08-20T04:41:27;23.63;;;13.70;;
2912;SDS011;1466;48.778;9.166;2023-08-20T04:43:53;25.00;;;15.53;;
2912;SDS011;1466;48.778;9.166;2023-08-20T04:46:18;33.77;;;16.27;;
2912;SDS011;1466;48.778;9.166;2023-08-20T04:48:45;31.07;;;16.73;;
2912;SDS011;1466;48.778;9.166;2023-08-20T04:51:11;23.50;;;15.30;;
2912;SDS011;1466;48.778;9.166;2023-08-20T04:53:36;29.63;;;18.37;;
2912;SDS011;1466;48.778;9.166;2023-08-20T04:56:02;28.17;;;16.70;;
2912;SDS011;1466;48.778;9.166;2023-08-20T04:58:28;23.80;;;17.33;;
2912;SDS011;1466;48.778;9.166;2023-08-20T05:00:53;23.33;;;15.57;;
2912;SDS011;1466;48.778;9.166;2023-08-20T05:03:19;25.33;;;17.37;;
2912;SDS011;1466;48.778;9.166;2023-08-20T05:05:48;25.13;;;17.43;;
2912;SDS011;1466;48.778;9.166;2023-08-20T05:08:14;29.40;;;17.63;;
2912;SDS011;1466;48.778;9.166;2023-08-20T05:10:39;29.10;;;18.13;;
2912;SDS011;1466;48.778;9.166;2023-08-20T05:13:05;26.77;;;16.37;;
2912;SDS011;1466;48.778;9.166;2023-08-20T05:15:33;24.17;;;16.40;;
2912;SDS011;1466;48.778;9.166;2023-08-20T05:17:59;28.60;;;16.50;;
2912;SDS011;1466;48.778;9.166;2023-08-20T05:20:24;36.93;;;18.73;;
2912;SDS011;1466;48.778;9.166;2023-08-20T05:22:50;23.70;;;16.00;;
2912;SDS011;1466;48.778;9.166;2023-08-20T05:25:16;22.50;;;14.50;;
2912;SDS011;1466;48.778;9.166;2023-08-20T05:27:41;25.90;;;15.90;;
2912;SDS011;1466;48.778;9.166;2023-08-20T05:30:07;23.20;;;15.23;;
2912;SDS011;1466;48.778;9.166;2023-08-20T05:32:33;22.30;;;15.23;;
2912;SDS011;1466;48.778;9.166;2023-08-20T05:34:59;25.60;;;15.90;;
2912;SDS011;1466;48.778;9.166;2023-08-20T05:37:24;27.13;;;15.77;;
2912;SDS011;1466;48.778;9.166;2023-08-20T05:39:50;25.30;;;16.33;;
2912;SDS011;1466;48.778;9.166;2023-08-20T05:42:15;21.70;;;14.97;;
2912;SDS011;1466;48.778;9.166;2023-08-20T05:44:41;23.13;;;15.93;;
2912;SDS011;1466;48.778;9.166;2023-08-20T05:47:07;22.67;;;15.80;;
2912;SDS011;1466;48.778;9.166;2023-08-20T05:49:33;27.90;;;17.03;;
2912;SDS011;1466;48.778;9.166;2023-08-20T05:51:58;26.07;;;16.77;;
2912;SDS011;1466;48.778;9.166;2023-08-20T05:54:24;20.17;;;16.10;;
2912;SDS011;1466;48.778;9.166;2023-08-20T05:56:50;31.17;;;17.10;;
2912;SDS011;1466;48.778;9.166;2023-08-20T05:59:15;23.83;;;15.37;;
2912;SDS011;1466;48.778;9.166;2023-08-20T06:01:41;24.83;;;15.23;;
2912;SDS011;1466;48.778;9.166;2023-08-20T06:04:07;21.23;;;15.87;;
2912;SDS011;1466;48.778;9.166;2023-08-20T06:06:34;27.93;;;16.47;;
2912;SDS011;1466;48.778;9.166;2023-08-20T06:09:00;20.80;;;14.63;;
2912;SDS011;1466;48.778;9.166;2023-08-20T06:11:25;30.37;;;16.40;;
2912;SDS011;1466;48.778;9.166;2023-08-20T06:13:51;21.63;;;14.70;;
2912;SDS011;1466;48.778;9.166;2023-08-20T06:16:16;35.07;;;16.70;;
2912;SDS011;1466;48.778;9.166;2023-08-20T06:18:42;35.07;;;17.43;;
2912;SDS011;1466;48.778;9.166;2023-08-20T06:21:08;27.50;;;15.80;;
2912;SDS011;1466;48.778;9.166;2023-08-20T06:23:33;32.23;;;16.17;;
2912;SDS011;1466;48.778;9.166;2023-08-20T06:25:59;20.90;;;15.27;;
2912;SDS011;1466;48.778;9.166;2023-08-20T06:28:24;21.03;;;16.00;;
2912;SDS011;1466;48.778;9.166;2023-08-20T06:30:50;17.40;;;13.73;;
2912;SDS011;1466;48.778;9.166;2023-08-20T06:33:16;19.27;;;15.03;;
2912;SDS011;1466;48.778;9.166;2023-08-20T06:35:41;20.40;;;15.07;;
2912;SDS011;1466;48.778;9.166;2023-08-20T06:38:07;23.10;;;15.53;;
2912;SDS011;1466;48.778;9.166;2023-08-20T06:40:33;29.40;;;17.37;;
2912;SDS011;1466;48.778;9.166;2023-08-20T06:42:59;17.80;;;14.20;;
2912;SDS011;1466;48.778;9.166;2023-08-20T06:45:24;29.53;;;16.77;;
2912;SDS011;1466;48.778;9.166;2023-08-20T06:47:50;18.27;;;14.30;;
2912;SDS011;1466;48.778;9.166;2023-08-20T06:50:16;28.23;;;17.13;;
2912;SDS011;1466;48.778;9.166;2023-08-20T06:52:42;26.17;;;15.13;;
2912;SDS011;1466;48.778;9.166;2023-08-20T06:55:08;29.23;;;17.23;;
2912;SDS011;1466;48.778;9.166;2023-08-20T06:57:33;25.60;;;15.40;;
2912;SDS011;1466;48.778;9.166;2023-08-20T06:59:59;30.67;;;17.07;;
2912;SDS011;1466;48.778;9.166;2023-08-20T07:02:24;22.77;;;15.70;;
2912;SDS011;1466;48.778;9.166;2023-08-20T07:04:50;24.17;;;16.27;;
2912;SDS011;1466;48.778;9.166;2023-08-20T07:07:16;29.17;;;14.63;;
2912;SDS011;1466;48.778;9.166;2023-08-20T07:09:41;27.43;;;15.57;;
2912;SDS011;1466;48.778;9.166;2023-08-20T07:12:07;28.37;;;17.33;;
2912;SDS011;1466;48.778;9.166;2023-08-20T07:14:32;32.30;;;17.90;;
2912;SDS011;1466;48.778;9.166;2023-08-20T07:16:58;23.50;;;15.67;;
2912;SDS011;1466;48.778;9.166;2023-08-20T07:19:25;25.67;;;16.17;;
2912;SDS011;1466;48.778;9.166;2023-08-20T07:21:50;26.73;;;16.83;;
2912;SDS011;1466;48.778;9.166;2023-08-20T07:24:16;38.30;;;17.33;;
2912;SDS011;1466;48.778;9.166;2023-08-20T07:26:41;31.83;;;17.50;;
2912;SDS011;1466;48.778;9.166;2023-08-20T07:29:07;30.80;;;16.20;;
2912;SDS011;1466;48.778;9.166;2023-08-20T07:31:33;31.10;;;16.90;;
2912;SDS011;1466;48.778;9.166;2023-08-20T07:33:59;25.03;;;16.30;;
2912;SDS011;1466;48.778;9.166;2023-08-20T07:36:26;24.50;;;16.37;;
2912;SDS011;1466;48.778;9.166;2023-08-20T07:38:52;30.00;;;16.30;;
2912;SDS011;1466;48.778;9.166;2023-08-20T07:41:19;24.17;;;16.77;;
2912;SDS011;1466;48.778;9.166;2023-08-20T07:43:45;23.23;;;16.00;;
2912;SDS011;1466;48.778;9.166;2023-08-20T07:46:11;26.13;;;16.13;;
2912;SDS011;1466;48.778;9.166;2023-08-20T07:48:38;23.90;;;15.50;;
2912;SDS011;1466;48.778;9.166;2023-08-20T07:51:03;24.10;;;15.80;;
2912;SDS011;1466;48.778;9.166;2023-08-20T07:53:30;29.17;;;16.77;;
2912;SDS011;1466;48.778;9.166;2023-08-20T07:55:56;32.00;;;17.13;;
2912;SDS011;1466;48.778;9.166;2023-08-20T07:58:22;25.70;;;17.13;;
2912;SDS011;1466;48.778;9.166;2023-08-20T08:00:47;25.23;;;14.97;;
2912;SDS011;1466;48.778;9.166;2023-08-20T08:03:13;24.63;;;15.80;;
2912;SDS011;1466;48.778;9.166;2023-08-20T08:05:45;29.23;;;16.70;;
2912;SDS011;1466;48.778;9.166;2023-08-20T08:08:15;26.33;;;16.43;;
2912;SDS011;1466;48.778;9.166;2023-08-20T08:10:43;28.60;;;17.33;;
2912;SDS011;1466;48.778;9.166;2023-08-20T08:13:10;33.90;;;17.00;;
2912;SDS011;1466;48.778;9.166;2023-08-20T08:15:36;26.27;;;17.23;;
2912;SDS011;1466;48.778;9.166;2023-08-20T08:18:02;28.37;;;15.53;;
2912;SDS011;1466;48.778;9.166;2023-08-20T08:20:28;32.37;;;16.90;;
2912;SDS011;1466;48.778;9.166;2023-08-20T08:22:54;26.53;;;14.87;;
2912;SDS011;1466;48.778;9.166;2023-08-20T08:25:19;20.70;;;14.53;;
2912;SDS011;1466;48.778;9.166;2023-08-20T08:27:45;22.53;;;15.33;;
2912;SDS011;1466;48.778;9.166;2023-08-20T08:30:11;24.23;;;14.80;;
2912;SDS011;1466;48.778;9.166;2023-08-20T08:32:36;39.23;;;17.90;;
2912;SDS011;1466;48.778;9.166;2023-08-20T08:35:02;30.50;;;16.00;;
2912;SDS011;1466;48.778;9.166;2023-08-20T08:37:28;27.00;;;15.90;;
2912;SDS011;1466;48.778;9.166;2023-08-20T08:39:53;33.40;;;15.90;;
2912;SDS011;1466;48.778;9.166;2023-08-20T08:42:19;29.60;;;14.83;;
2912;SDS011;1466;48.778;9.166;2023-08-20T08:44:49;27.00;;;15.07;;
2912;SDS011;1466;48.778;9.166;2023-08-20T08:47:15;23.40;;;15.73;;
2912;SDS011;1466;48.778;9.166;2023-08-20T08:49:41;24.53;;;15.60;;
2912;SDS011;1466;48.778;9.166;2023-08-20T08:52:09;20.83;;;15.07;;
2912;SDS011;1466;48.778;9.166;2023-08-20T08:54:36;21.83;;;14.33;;
2912;SDS011;1466;48.778;9.166;2023-08-20T08:57:01;33.93;;;18.03;;
2912;SDS011;1466;48.778;9.166;2023-08-20T08:59:27;19.57;;;14.53;;
2912;SDS011;1466;48.778;9.166;2023-08-20T09:01:53;22.53;;;15.80;;
2912;SDS011;1466;48.778;9.166;2023-08-20T09:04:21;22.77;;;15.60;;
2912;SDS011;1466;48.778;9.166;2023-08-20T09:06:51;29.73;;;17.67;;
2912;SDS011;1466;48.778;9.166;2023-08-20T09:09:20;21.23;;;15.50;;
2912;SDS011;1466;48.778;9.166;2023-08-20T09:11:46;21.60;;;15.20;;
2912;SDS011;1466;48.778;9.166;2023-08-20T09:14:23;34.50;;;17.87;;
2912;SDS011;1466;48.778;9.166;2023-08-20T09:16:57;22.97;;;15.40;;
2912;SDS011;1466;48.778;9.166;2023-08-20T09:19:24;23.77;;;15.20;;
2912;SDS011;1466;48.778;9.166;2023-08-20T09:21:55;29.67;;;16.30;;
2912;SDS011;1466;48.778;9.166;2023-08-20T09:24:32;22.43;;;15.33;;
2912;SDS011;1466;48.778;9.166;2023-08-20T09:27:04;22.77;;;15.03;;
2912;SDS011;1466;48.778;9.166;2023-08-20T09:29:55;17.90;;;14.13;;
2912;SDS011;1466;48.778;9.166;2023-08-20T09:32:20;23.80;;;15.50;;
2912;SDS011;1466;48.778;9.166;2023-08-20T09:34:48;22.37;;;14.30;;
2912;SDS011;1466;48.778;9.166;2023-08-20T09:37:15;18.17;;;14.60;;
2912;SDS011;1466;48.778;9.166;2023-08-20T09:39:42;19.40;;;14.40;;
2912;SDS011;1466;48.778;9.166;2023-08-20T09:42:09;23.37;;;15.27;;
2912;SDS011;1466;48.778;9.166;2023-08-20T09:44:36;17.90;;;14.87;;
2912;SDS011;1466;48.778;9.166;2023-08-20T09:47:05;20.53;;;14.97;;
2912;SDS011;1466;48.778;9.166;2023-08-20T09:49:33;18.87;;;14.77;;
2912;SDS011;1466;48.778;9.166;2023-08-20T09:52:05;18.60;;;13.90;;
2912;SDS011;1466;48.778;9.166;2023-08-20T09:57:38;22.00;;;14.23;;
2912;SDS011;1466;48.778;9.166;2023-08-20T10:00:05;32.20;;;16.60;;
2912;SDS011;1466;48.778;9.166;2023-08-20T10:02:36;28.57;;;14.70;;
2912;SDS011;1466;48.778;9.166;2023-08-20T10:05:02;22.83;;;14.77;;
2912;SDS011;1466;48.778;9.166;2023-08-20T10:07:30;17.30;;;12.90;;
2912;SDS011;1466;48.778;9.166;2023-08-20T10:10:00;18.13;;;13.00;;
2912;SDS011;1466;48.778;9.166;2023-08-20T10:12:28;24.37;;;14.10;;
2912;SDS011;1466;48.778;9.166;2023-08-20T10:14:57;17.37;;;12.93;;
2912;SDS011;1466;48.778;9.166;2023-08-20T10:17:24;22.67;;;14.50;;
2912;SDS011;1466;48.778;9.166;2023-08-20T10:19:53;17.90;;;13.40;;
2912;SDS011;1466;48.778;9.166;2023-08-20T10:22:22;15.97;;;13.07;;
2912;SDS011;1466;48.778;9.166;2023-08-20T10:24:49;16.27;;;13.20;;
2912;SDS011;1466;48.778;9.166;2023-08-20T10:27:26;19.63;;;13.90;;
2912;SDS011;1466;48.778;9.166;2023-08-20T10:29:53;25.57;;;14.90;;
2912;SDS011;1466;48.778;9.166;2023-08-20T10:32:19;18.90;;;12.57;;
2912;SDS011;1466;48.778;9.166;2023-08-20T10:34:51;28.23;;;15.73;;
2912;SDS011;1466;48.778;9.166;2023-08-20T10:37:25;29.40;;;14.70;;
2912;SDS011;1466;48.778;9.166;2023-08-20T10:39:55;25.37;;;14.60;;
2912;SDS011;1466;48.778;9.166;2023-08-20T10:42:22;22.13;;;13.77;;
2912;SDS011;1466;48.778;9.166;2023-08-20T10:45:02;31.67;;;15.83;;
2912;SDS011;1466;48.778;9.166;2023-08-20T10:50:16;27.53;;;14.93;;
2912;SDS011;1466;48.778;9.166;2023-08-20T10:52:50;27.70;;;15.70;;
2912;SDS011;1466;48.778;9.166;2023-08-20T10:55:24;24.70;;;14.60;;
2912;SDS011;1466;48.778;9.166;2023-08-20T10:57:56;21.30;;;14.67;;
2912;SDS011;1466;48.778;9.166;2023-08-20T11:00:39;25.33;;;13.67;;
2912;SDS011;1466;48.778;9.166;2023-08-20T11:03:06;22.10;;;14.20;;
2912;SDS011;1466;48.778;9.166;2023-08-20T11:05:35;21.53;;;13.80;;
2912;SDS011;1466;48.778;9.166;2023-08-20T11:31:35;27.43;;;14.53;;
2912;SDS011;1466;48.778;9.166;2023-08-20T11:34:02;31.80;;;15.70;;
2912;SDS011;1466;48.778;9.166;2023-08-20T11:37:01;17.77;;;12.30;;
2912;SDS011;1466;48.778;9.166;2023-08-20T11:49:27;17.43;;;12.53;;
2912;SDS011;1466;48.778;9.166;2023-08-20T11:52:18;16.80;;;12.60;;
2912;SDS011;1466;48.778;9.166;2023-08-20T11:55:24;17.73;;;12.60;;
2912;SDS011;1466;48.778;9.166;2023-08-20T11:59:06;21.67;;;12.70;;
2912;SDS011;1466;48.778;9.166;2023-08-20T12:15:13;50.63;;;16.63;;
2912;SDS011;1466;48.778;9.166;2023-08-20T12:24:21;15.97;;;11.90;;
2912;SDS011;1466;48.778;9.166;2023-08-20T12:27:05;26.47;;;12.40;;
2912;SDS011;1466;48.778;9.166;2023-08-20T12:32:53;23.13;;;12.50;;
2912;SDS011;1466;48.778;9.166;2023-08-20T12:35:18;18.00;;;12.20;;
2912;SDS011;1466;48.778;9.166;2023-08-20T12:37:49;16.27;;;12.07;;
2912;SDS011;1466;48.778;9.166;2023-08-20T12:40:20;29.37;;;13.07;;
2912;SDS011;1466;48.778;9.166;2023-08-20T12:42:47;15.23;;;11.40;;
2912;SDS011;1466;48.778;9.166;2023-08-20T12:45:12;24.00;;;13.27;;
2912;SDS011;1466;48.778;9.166;2023-08-20T12:47:38;15.53;;;11.80;;
2912;SDS011;1466;48.778;9.166;2023-08-20T12:50:04;24.80;;;11.87;;
2912;SDS011;1466;48.778;9.166;2023-08-20T12:52:31;20.67;;;10.80;;
2912;SDS011;1466;48.778;9.166;2023-08-20T12:54:57;24.00;;;12.83;;
2912;SDS011;1466;48.778;9.166;2023-08-20T12:57:23;22.77;;;12.70;;
2912;SDS011;1466;48.778;9.166;2023-08-20T12:59:48;20.63;;;11.30;;
2912;SDS011;1466;48.778;9.166;2023-08-20T13:02:14;18.13;;;11.57;;
2912;SDS011;1466;48.778;9.166;2023-08-20T13:04:40;19.33;;;11.47;;
2912;SDS011;1466;48.778;9.166;2023-08-20T13:07:06;17.57;;;10.63;;
2912;SDS011;1466;48.778;9.166;2023-08-20T13:09:32;20.23;;;11.23;;
2912;SDS011;1466;48.778;9.166;2023-08-20T13:11:59;23.70;;;12.67;;
2912;SDS011;1466;48.778;9.166;2023-08-20T13:14:27;26.23;;;12.57;;
2912;SDS011;1466;48.778;9.166;2023-08-20T13:16:53;20.67;;;12.23;;
2912;SDS011;1466;48.778;9.166;2023-08-20T13:19:18;27.67;;;12.70;;
2912;SDS011;1466;48.778;9.166;2023-08-20T13:21:44;20.70;;;12.33;;
2912;SDS011;1466;48.778;9.166;2023-08-20T13:24:09;16.20;;;11.70;;
2912;SDS011;1466;48.778;9.166;2023-08-20T13:26:35;21.60;;;12.47;;
2912;SDS011;1466;48.778;9.166;2023-08-20T13:29:00;20.90;;;12.47;;
2912;SDS011;1466;48.778;9.166;2023-08-20T13:31:26;26.73;;;13.93;;
2912;SDS011;1466;48.778;9.166;2023-08-20T13:33:52;23.90;;;12.17;;
2912;SDS011;1466;48.778;9.166;2023-08-20T13:36:17;12.77;;;11.47;;
2912;SDS011;1466;48.778;9.166;2023-08-20T13:38:43;17.77;;;11.60;;
2912;SDS011;1466;48.778;9.166;2023-08-20T13:41:08;17.47;;;12.07;;
2912;SDS011;1466;48.778;9.166;2023-08-20T13:43:34;31.10;;;13.00;;
2912;SDS011;1466;48.778;9.166;2023-08-20T13:46:00;16.73;;;11.40;;
2912;SDS011;1466;48.778;9.166;2023-08-20T13:48:26;16.00;;;10.73;;
2912;SDS011;1466;48.778;9.166;2023-08-20T13:50:51;19.27;;;11.27;;
2912;SDS011;1466;48.778;9.166;2023-08-20T13:53:17;24.47;;;12.90;;
2912;SDS011;1466;48.778;9.166;2023-08-20T13:55:43;13.10;;;11.63;;
2912;SDS011;1466;48.778;9.166;2023-08-20T13:58:08;28.37;;;13.37;;
2912;SDS011;1466;48.778;9.166;2023-08-20T14:00:34;22.03;;;13.07;;
2912;SDS011;1466;48.778;9.166;2023-08-20T14:02:59;24.03;;;12.43;;
2912;SDS011;1466;48.778;9.166;2023-08-20T14:05:25;17.90;;;11.93;;
2912;SDS011;1466;48.778;9.166;2023-08-20T14:07:50;17.13;;;11.83;;
2912;SDS011;1466;48.778;9.166;2023-08-20T14:10:16;27.30;;;12.77;;
2912;SDS011;1466;48.778;9.166;2023-08-20T14:12:42;17.50;;;12.03;;
2912;SDS011;1466;48.778;9.166;2023-08-20T14:15:08;22.73;;;13.20;;
2912;SDS011;1466;48.778;9.166;2023-08-20T14:17:34;21.43;;;12.13;;
2912;SDS011;1466;48.778;9.166;2023-08-20T14:19:59;25.23;;;12.60;;
2912;SDS011;1466;48.778;9.166;2023-08-20T14:22:25;13.60;;;11.70;;
2912;SDS011;1466;48.778;9.166;2023-08-20T14:24:53;17.50;;;12.20;;
2912;SDS011;1466;48.778;9.166;2023-08-20T14:27:18;11.80;;;10.47;;
2912;SDS011;1466;48.778;9.166;2023-08-20T14:29:44;20.13;;;11.47;;
2912;SDS011;1466;48.778;9.166;2023-08-20T14:32:10;25.10;;;12.33;;
2912;SDS011;1466;48.778;9.166;2023-08-20T14:34:35;24.43;;;12.83;;
2912;SDS011;1466;48.778;9.166;2023-08-20T14:37:01;25.07;;;12.70;;
2912;SDS011;1466;48.778;9.166;2023-08-20T14:39:27;23.77;;;13.27;;
2912;SDS011;1466;48.778;9.166;2023-08-20T14:41:56;26.93;;;12.90;;
2912;SDS011;1466;48.778;9.166;2023-08-20T14:44:22;26.10;;;12.47;;
2912;SDS011;1466;48.778;9.166;2023-08-20T14:46:48;24.53;;;12.63;;
2912;SDS011;1466;48.778;9.166;2023-08-20T14:49:13;20.03;;;11.80;;
2912;SDS011;1466;48.778;9.166;2023-08-20T14:51:39;16.47;;;11.80;;
2912;SDS011;1466;48.778;9.166;2023-08-20T14:54:04;16.63;;;11.97;;
2912;SDS011;1466;48.778;9.166;2023-08-20T14:56:30;17.47;;;12.20;;
2912;SDS011;1466;48.778;9.166;2023-08-20T14:58:56;18.17;;;10.60;;
2912;SDS011;1466;48.778;9.166;2023-08-20T15:01:21;28.17;;;13.20;;
2912;SDS011;1466;48.778;9.166;2023-08-20T15:03:47;18.63;;;12.87;;
2912;SDS011;1466;48.778;9.166;2023-08-20T15:06:12;15.60;;;10.87;;
2912;SDS011;1466;48.778;9.166;2023-08-20T15:08:39;13.83;;;10.33;;
2912;SDS011;1466;48.778;9.166;2023-08-20T15:11:05;17.13;;;11.60;;
2912;SDS011;1466;48.778;9.166;2023-08-20T15:13:31;20.53;;;11.23;;
2912;SDS011;1466;48.778;9.166;2023-08-20T15:15:57;15.80;;;10.70;;
2912;SDS011;1466;48.778;9.166;2023-08-20T15:18:23;12.83;;;9.87;;
2912;SDS011;1466;48.778;9.166;2023-08-20T15:20:59;15.63;;;10.60;;
2912;SDS011;1466;48.778;9.166;2023-08-20T15:23:25;18.77;;;10.37;;
2912;SDS011;1466;48.778;9.166;2023-08-20T15:25:53;17.27;;;11.33;;
2912;SDS011;1466;48.778;9.166;2023-08-20T15:28:20;14.27;;;9.77;;
2912;SDS011;1466;48.778;9.166;2023-08-20T15:30:50;14.93;;;9.40;;
2912;SDS011;1466;48.778;9.166;2023-08-20T15:33:16;24.77;;;12.20;;
2912;SDS011;1466;48.778;9.166;2023-08-20T15:35:42;20.13;;;10.40;;
2912;SDS011;1466;48.778;9.166;2023-08-20T15:38:11;15.87;;;9.77;;
2912;SDS011;1466;48.778;9.166;2023-08-20T15:40:40;18.10;;;10.00;;
2912;SDS011;1466;48.778;9.166;2023-08-20T15:43:06;18.53;;;9.63;;
2912;SDS011;1466;48.778;9.166;2023-08-20T15:45:31;17.40;;;10.67;;
2912;SDS011;1466;48.778;9.166;2023-08-20T15:47:57;15.70;;;9.90;;
2912;SDS011;1466;48.778;9.166;2023-08-20T15:50:23;21.83;;;10.53;;
2912;SDS011;1466;48.778;9.166;2023-08-20T15:52:48;27.93;;;12.13;;
2912;SDS011;1466;48.778;9.166;2023-08-20T15:55:14;13.07;;;9.10;;